CDT,Max TemperatureF,Mean TemperatureF,Min TemperatureF,Max Dew PointF,MeanDew PointF,Min DewpointF,Max Humidity, Mean Humidity, Min Humidity, Max Sea Level PressureIn, Mean Sea Level PressureIn, Min Sea Level PressureIn, Max VisibilityMiles, Mean VisibilityMiles, Min VisibilityMiles, Max Wind SpeedMPH, Mean Wind SpeedMPH, Max Gust SpeedMPH,PrecipitationIn, CloudCover, Events, WindDirDegrees
2013-7-1,71,60,50,57,51,43,94,64,46,30.17,30.14,30.07,10,10,8,17,10,20,0.00,0,,73
2013-7-2,71,58,46,54,45,36,87,60,27,30.18,30.14,30.09,10,10,10,13,5,16,0.00,2,,61
2013-7-3,73,64,57,57,53,48,94,67,43,30.12,30.07,30.01,10,10,7,10,3,,0.00,6,,111
2013-7-4,78,69,60,64,62,57,100,76,54,30.05,30.01,29.98,10,8,3,18,7,24,0.00,4,,209
2013-7-5,84,72,60,64,62,57,100,68,40,30.03,29.99,29.94,10,8,1,17,8,26,0.00,0,,220
2013-7-6,84,76,68,66,64,61,78,65,48,30.00,29.96,29.92,10,10,7,16,10,22,0.00,0,,218
2013-7-7,82,76,69,73,69,64,100,80,66,29.94,29.91,29.88,10,7,2,14,6,16,0.00,1,,230
2013-7-8,75,70,64,70,67,64,100,89,73,29.99,29.93,29.86,10,8,1,22,6,26,1.14,4,Thunderstorm,103
2013-7-9,75,66,60,72,66,61,100,93,83,30.00,29.89,29.72,10,6,0,10,4,18,0.95,6,Thunderstorm,165
2013-7-10,75,68,59,70,58,52,100,69,44,29.99,29.86,29.74,10,10,7,17,7,25,0.00,2,,320
2013-7-11,75,66,57,57,54,50,88,68,41,30.12,30.08,29.99,10,10,4,10,5,,0.00,0,,135
2013-7-12,80,66,53,61,55,50,100,65,44,30.16,30.11,30.07,10,10,7,14,4,18,0.00,0,,196
2013-7-13,82,70,59,64,60,55,88,66,48,30.16,30.13,30.08,10,10,7,15,6,20,0.00,0,,202
2013-7-14,84,70,57,70,63,55,100,72,51,30.24,30.21,30.17,10,10,7,16,3,17,0.00,0,,178
2013-7-15,87,73,60,72,67,61,100,74,51,30.28,30.25,30.22,10,8,0,14,3,,0.00,0,,178
2013-7-16,89,76,66,79,73,66,100,82,66,30.26,30.22,30.16,10,9,2,13,4,16,0.00,1,,228
2013-7-17,89,79,71,77,73,70,94,81,58,30.23,30.17,30.10,10,10,7,18,5,17,0.17,1,Thunderstorm,248
2013-7-18,91,82,73,75,72,70,94,74,52,30.11,29.95,29.77,10,10,8,14,6,24,0.02,1,Thunderstorm,244
2013-7-19,89,78,66,73,68,61,89,69,43,29.79,29.69,29.65,10,10,9,13,9,25,0.03,2,Thunderstorm,285
2013-7-20,69,62,55,61,53,45,94,65,46,30.03,29.91,29.78,10,10,10,14,7,18,0.00,1,,63
2013-7-21,68,60,51,55,52,45,100,76,64,30.05,29.99,29.92,10,10,10,10,5,,0.00,5,,56
2013-7-22,82,66,51,70,62,52,100,78,54,29.93,29.76,29.60,10,10,9,21,6,26,0.00,1,,233
2013-7-23,69,60,51,57,49,43,94,63,40,30.00,29.85,29.69,10,10,10,20,8,26,0.00,2,,355
2013-7-24,71,58,46,55,50,45,100,70,43,30.08,30.03,30.00,10,10,8,15,4,18,0.00,2,,191
2013-7-25,78,67,57,63,58,54,88,70,50,30.03,29.98,29.90,10,10,8,18,9,29,0.00,3,,221
2013-7-26,69,60,51,64,60,48,100,90,83,29.93,29.88,29.80,10,10,3,14,7,20,1.09,5,Thunderstorm,238
2013-7-27,60,54,48,52,47,45,94,78,55,29.91,29.86,29.81,10,10,10,13,6,20,0.15,7,,318
2013-7-28,57,54,51,55,51,46,100,90,77,29.95,29.84,29.79,10,9,2,9,5,18,0.23,7,,315
2013-7-29,71,61,51,61,54,50,100,79,60,30.16,30.08,29.95,10,10,7,14,7,,0.00,4,,264
2013-7-30,71,64,57,61,57,52,100,78,60,30.19,30.14,30.08,10,9,4,12,5,,0.00,3,,212
2013-7-31,77,68,60,66,63,55,94,82,65,30.07,29.97,29.88,10,10,7,12,5,16,0.00,5,Thunderstorm,244